Time;durP1;ratioP1;P1;durP2;ratioP2;P2;SDS_P1;SDS_P2;PMS_P1;PMS_P2;Temp;Humidity;BMP_temperature;BMP_pressure;BME280_temperature;BME280_humidity;BME280_pressure;Samples;Min_cycle;Max_cycle;Signal;HPM_P1;HPM_P2
2023/10/15 00:00:15;;;;;;;4.13;1.90;;;;;;;11.86;100.00;96894.28;5071623;28;20198;-54
2023/10/15 00:02:44;;;;;;;3.97;1.90;;;;;;;11.88;100.00;96889.66;5071669;28;20195;-54
2023/10/15 00:05:12;;;;;;;3.10;1.70;;;;;;;11.81;100.00;96886.75;5062622;28;20260;-52
2023/10/15 00:07:38;;;;;;;4.27;1.50;;;;;;;11.82;100.00;96888.44;5063005;28;20202;-54
2023/10/15 00:10:10;;;;;;;4.70;2.20;;;;;;;11.79;100.00;96893.19;5062115;28;20253;-52
2023/10/15 00:12:37;;;;;;;2.90;1.67;;;;;;;11.81;100.00;96892.06;5062673;28;20194;-55
2023/10/15 00:15:05;;;;;;;3.90;1.77;;;;;;;11.83;100.00;96889.28;5062090;28;20207;-53
2023/10/15 00:17:31;;;;;;;2.70;1.47;;;;;;;11.84;100.00;96883.81;5062850;28;20207;-54
2023/10/15 00:19:59;;;;;;;4.20;1.50;;;;;;;11.82;100.00;96888.44;5061676;28;20190;-55
2023/10/15 00:22:26;;;;;;;5.37;1.67;;;;;;;11.83;100.00;96894.56;5062548;28;20218;-52
2023/10/15 00:24:53;;;;;;;3.60;1.33;;;;;;;11.86;100.00;96894.28;5061242;28;20305;-54
2023/10/15 00:27:20;;;;;;;2.83;1.50;;;;;;;11.81;100.00;96892.06;5061793;28;20650;-53
2023/10/15 00:29:48;;;;;;;2.03;1.43;;;;;;;11.77;100.00;96898.63;5062084;28;20230;-53
2023/10/15 00:32:14;;;;;;;3.83;1.63;;;;;;;11.79;100.00;96898.50;5061635;28;20214;-55
2023/10/15 00:34:41;;;;;;;2.90;1.47;;;;;;;11.76;100.00;96889.00;5061604;28;20535;-54
2023/10/15 00:37:09;;;;;;;3.77;1.73;;;;;;;11.80;100.00;96885.06;5061921;28;20229;-53
2023/10/15 00:39:41;;;;;;;4.20;1.87;;;;;;;11.76;100.00;96877.59;5061429;28;20203;-56
2023/10/15 00:42:08;;;;;;;2.80;1.73;;;;;;;11.77;100.00;96880.06;5061712;28;20287;-55
2023/10/15 00:44:34;;;;;;;1.80;1.27;;;;;;;11.79;100.00;96883.44;5062008;28;20207;-53
2023/10/15 00:47:03;;;;;;;4.43;1.77;;;;;;;11.79;100.00;96874.63;5061582;28;20198;-53
2023/10/15 00:49:31;;;;;;;3.90;1.80;;;;;;;11.81;100.00;96884.09;5060979;28;20222;-54
2023/10/15 00:52:01;;;;;;;3.90;1.70;;;;;;;11.80;100.00;96874.47;5064476;28;20202;-54
2023/10/15 00:54:33;;;;;;;3.97;1.50;;;;;;;11.83;100.00;96879.47;5064820;28;20259;-54
2023/10/15 00:57:15;;;;;;;3.30;1.80;;;;;;;11.82;100.00;96872.53;5064133;28;20282;-54
2023/10/15 00:59:48;;;;;;;3.07;1.20;;;;;;;11.81;100.00;96870.84;5063214;28;20207;-54
2023/10/15 01:02:21;;;;;;;3.37;1.40;;;;;;;11.82;100.00;96872.53;5062861;28;20631;-54
2023/10/15 01:04:48;;;;;;;1.87;1.50;;;;;;;11.80;100.00;96879.78;5066066;28;20648;-53
2023/10/15 01:07:20;;;;;;;3.23;1.50;;;;;;;11.82;100.00;96872.53;5067442;28;20213;-55
2023/10/15 01:09:48;;;;;;;2.30;1.50;;;;;;;11.78;100.00;96865.00;5073513;28;20229;-53
2023/10/15 01:12:24;;;;;;;3.90;1.57;;;;;;;11.83;100.00;96868.88;5072561;28;20668;-54
2023/10/15 01:14:51;;;;;;;2.70;1.57;;;;;;;11.79;100.00;96861.41;5072490;28;20186;-53
2023/10/15 01:17:19;;;;;;;4.27;1.47;;;;;;;11.79;100.00;96872.84;5072435;28;20202;-52
2023/10/15 01:19:45;;;;;;;3.43;2.00;;;;;;;11.79;100.00;96878.13;5077492;28;20269;-54
2023/10/15 01:22:18;;;;;;;3.50;1.80;;;;;;;11.83;100.00;96868.88;5072144;28;20207;-53
2023/10/15 01:24:50;;;;;;;2.83;1.50;;;;;;;11.83;100.00;96865.44;5073326;28;20226;-55
2023/10/15 01:27:27;;;;;;;3.27;1.40;;;;;;;11.81;100.00;96864.72;5071698;28;20278;-54
2023/10/15 01:29:55;;;;;;;1.97;1.47;;;;;;;11.83;100.00;96865.44;5069623;28;20249;-55
2023/10/15 01:32:22;;;;;;;2.60;1.70;;;;;;;11.83;100.00;96873.38;5070278;28;20213;-54
2023/10/15 01:34:50;;;;;;;2.37;1.80;;;;;;;11.86;100.00;96873.09;5060075;28;20206;-55
2023/10/15 01:37:24;;;;;;;3.60;1.70;;;;;;;11.86;100.00;96873.94;5061427;28;20616;-55
2023/10/15 01:39:51;;;;;;;3.73;1.60;;;;;;;11.85;100.00;96866.09;5061678;28;20690;-54
2023/10/15 01:42:34;;;;;;;3.93;1.90;;;;;;;11.88;100.00;96865.81;5061031;28;20215;-53
2023/10/15 01:45:13;;;;;;;2.27;1.97;;;;;;;11.88;100.00;96876.41;5060794;28;20210;-53
2023/10/15 01:47:53;;;;;;;3.93;1.87;;;;;;;11.78;100.00;96865.00;5060632;28;20628;-52
2023/10/15 01:50:23;;;;;;;3.83;1.83;;;;;;;11.83;100.00;96860.13;5060454;28;20658;-54
2023/10/15 01:52:54;;;;;;;3.83;1.97;;;;;;;11.78;100.00;96868.50;5060950;28;20226;-53
2023/10/15 01:55:21;;;;;;;2.40;1.90;;;;;;;11.78;100.00;96878.25;5060687;28;20264;-54
2023/10/15 01:57:50;;;;;;;3.17;1.57;;;;;;;11.76;100.00;96856.38;5060869;28;20301;-53
2023/10/15 02:00:32;;;;;;;2.23;1.77;;;;;;;11.75;100.00;96863.50;5061110;28;20206;-54
2023/10/15 02:02:59;;;;;;;2.33;1.63;;;;;;;11.72;100.00;96871.75;5060895;28;20229;-55
2023/10/15 02:05:29;;;;;;;2.47;1.67;;;;;;;11.76;100.00;96883.69;5060036;28;20210;-54
2023/10/15 02:07:56;;;;;;;4.30;1.67;;;;;;;11.78;100.00;96876.44;5060921;28;20231;-56
2023/10/15 02:10:22;;;;;;;3.97;1.63;;;;;;;11.77;100.00;96871.28;5060128;28;20746;-54
2023/10/15 02:12:59;;;;;;;3.60;1.70;;;;;;;11.74;100.00;96875.06;5060565;28;20241;-55
2023/10/15 02:15:28;;;;;;;3.63;1.70;;;;;;;11.68;100.00;96885.38;5062895;28;20194;-54
2023/10/15 02:17:55;;;;;;;1.97;1.53;;;;;;;11.68;100.00;96869.47;5066796;28;20202;-55
2023/10/15 02:20:42;;;;;;;3.93;1.73;;;;;;;11.69;100.00;96871.97;5069650;28;20199;-55
2023/10/15 02:23:08;;;;;;;2.13;1.53;;;;;;;11.67;100.00;96868.66;5060807;28;20203;-54
2023/10/15 02:25:41;;;;;;;2.50;1.40;;;;;;;11.71;100.00;96879.81;5060325;28;20202;-54
2023/10/15 02:28:09;;;;;;;2.27;1.43;;;;;;;11.70;100.00;96872.81;5060609;28;20282;-53
2023/10/15 02:30:40;;;;;;;6.53;1.63;;;;;;;11.70;100.00;96873.66;5060232;28;20577;-55
2023/10/15 02:33:06;;;;;;;1.50;1.40;;;;;;;11.70;100.00;96878.94;5060188;28;20627;-53
2023/10/15 02:35:39;;;;;;;3.93;1.63;;;;;;;11.72;100.00;96876.19;5059739;28;20219;-57
2023/10/15 02:38:10;;;;;;;3.47;1.80;;;;;;;11.72;100.00;96871.75;5060624;28;20203;-55
2023/10/15 02:40:56;;;;;;;3.73;1.23;;;;;;;11.73;100.00;96873.38;5060560;28;20296;-55
2023/10/15 02:43:26;;;;;;;3.00;1.70;;;;;;;11.68;100.00;96870.31;5061035;28;20230;-54
2023/10/15 02:45:52;;;;;;;2.80;1.90;;;;;;;11.67;100.00;96873.94;5060259;28;20211;-53
2023/10/15 02:48:21;;;;;;;2.23;1.53;;;;;;;11.64;100.00;96868.09;5062768;28;20203;-54
2023/10/15 02:50:58;;;;;;;2.97;1.80;;;;;;;11.61;100.00;96866.59;5063426;28;20223;-53
2023/10/15 02:53:27;;;;;;;3.40;1.80;;;;;;;11.57;100.00;96870.50;5064390;28;20227;-54
2023/10/15 02:55:57;;;;;;;4.07;1.77;;;;;;;11.58;100.00;96866.88;5063915;28;20203;-55
2023/10/15 02:58:28;;;;;;;3.37;1.60;;;;;;;11.51;100.00;96873.72;5064021;28;20226;-54
2023/10/15 03:00:59;;;;;;;3.50;1.30;;;;;;;11.48;100.00;96864.22;5063173;28;20203;-53
2023/10/15 03:03:33;;;;;;;1.93;1.43;;;;;;;11.49;100.00;96875.66;5063173;28;20207;-53
2023/10/15 03:06:00;;;;;;;3.73;1.80;;;;;;;11.41;100.00;96868.44;5062668;28;20592;-55
2023/10/15 03:08:31;;;;;;;2.13;1.43;;;;;;;11.42;100.00;96866.63;5062967;28;20306;-54
2023/10/15 03:11:02;;;;;;;5.17;1.50;;;;;;;11.41;100.00;96868.44;5062436;28;20543;-53
2023/10/15 03:13:33;;;;;;;4.43;1.53;;;;;;;11.40;100.00;96877.38;5063023;28;20253;-54
2023/10/15 03:16:07;;;;;;;1.97;1.53;;;;;;;11.35;100.00;96876.09;5063667;28;20203;-53
2023/10/15 03:18:35;;;;;;;3.23;1.70;;;;;;;11.34;100.00;96874.44;5063511;28;20218;-53
2023/10/15 03:21:14;;;;;;;3.40;1.40;;;;;;;11.30;100.00;96883.66;5061831;28;20211;-55
2023/10/15 03:23:41;;;;;;;4.07;1.37;;;;;;;11.30;100.00;96881.00;5063325;28;20190;-53
2023/10/15 03:26:08;;;;;;;2.40;1.17;;;;;;;11.26;100.00;96869.88;5062967;28;20211;-53
2023/10/15 03:28:44;;;;;;;2.27;1.30;;;;;;;11.29;100.00;96874.03;5062818;28;20708;-55
2023/10/15 03:31:14;;;;;;;3.40;1.30;;;;;;;11.26;100.00;96884.91;5062943;28;20358;-54
2023/10/15 03:33:55;;;;;;;3.37;1.27;;;;;;;11.26;100.00;96884.91;5063253;28;20222;-53
2023/10/15 03:36:25;;;;;;;2.90;1.13;;;;;;;11.21;100.00;96872.09;5062676;28;20678;-53
2023/10/15 03:38:52;;;;;;;2.93;1.20;;;;;;;11.19;100.00;96879.34;5062603;28;20209;-54
2023/10/15 03:41:26;;;;;;;1.93;1.00;;;;;;;11.18;100.00;96867.09;5062555;28;20636;-54
2023/10/15 03:43:57;;;;;;;3.97;1.30;;;;;;;11.19;100.00;96873.22;5063147;28;20206;-53
2023/10/15 03:46:25;;;;;;;2.00;0.67;;;;;;;11.15;100.00;96875.31;5062664;28;20221;-53
2023/10/15 03:48:53;;;;;;;2.50;1.10;;;;;;;11.13;100.00;96873.75;5062760;28;20547;-54
2023/10/15 03:51:21;;;;;;;2.33;1.20;;;;;;;11.12;100.00;96888.81;5062114;28;20309;-52
2023/10/15 03:53:51;;;;;;;3.40;1.20;;;;;;;11.15;100.00;96887.69;5062966;28;20210;-53
2023/10/15 03:56:19;;;;;;;1.80;0.93;;;;;;;11.15;100.00;96879.75;5062571;28;20198;-56
2023/10/15 03:58:46;;;;;;;2.80;1.23;;;;;;;11.17;100.00;96877.78;5062078;28;20221;-55
2023/10/15 04:01:16;;;;;;;2.67;1.20;;;;;;;11.19;100.00;96883.81;5062669;28;20211;-54
2023/10/15 04:03:47;;;;;;;4.53;1.20;;;;;;;11.19;100.00;96873.22;5062547;28;20223;-53
2023/10/15 04:06:16;;;;;;;2.30;1.03;;;;;;;11.23;100.00;96870.13;5062662;28;20209;-52
2023/10/15 04:08:59;;;;;;;2.60;1.17;;;;;;;11.20;100.00;96880.16;5062387;28;20239;-56
2023/10/15 04:11:29;;;;;;;2.83;1.60;;;;;;;11.16;100.00;96884.91;5062005;28;20253;-53
2023/10/15 04:13:56;;;;;;;2.20;1.03;;;;;;;11.19;100.00;96881.16;5062414;28;20548;-53
2023/10/15 04:16:24;;;;;;;2.27;1.13;;;;;;;11.17;100.00;96875.16;5061628;28;20253;-53
2023/10/15 04:18:53;;;;;;;3.23;1.50;;;;;;;11.22;100.00;96878.22;5061750;28;20206;-54
2023/10/15 04:21:20;;;;;;;2.53;1.20;;;;;;;11.21;100.00;96872.09;5062095;28;20203;-54
2023/10/15 04:23:52;;;;;;;2.17;1.40;;;;;;;11.24;100.00;96871.81;5060930;28;20199;-54
2023/10/15 04:26:22;;;;;;;3.70;1.10;;;;;;;11.21;100.00;96876.53;5062046;28;20213;-54
2023/10/15 04:28:52;;;;;;;2.60;1.13;;;;;;;11.23;100.00;96882.56;5061732;28;20530;-53
2023/10/15 04:31:22;;;;;;;2.20;0.90;;;;;;;11.22;100.00;96875.56;5061920;28;20219;-53
2023/10/15 04:33:52;;;;;;;3.50;1.23;;;;;;;11.23;100.00;96886.00;5064981;28;20202;-55
2023/10/15 04:36:18;;;;;;;2.70;1.37;;;;;;;11.18;100.00;96879.47;5069455;28;20229;-54
2023/10/15 04:38:45;;;;;;;2.47;0.93;;;;;;;11.21;100.00;96877.38;5072601;28;20219;-54
2023/10/15 04:41:21;;;;;;;2.37;1.20;;;;;;;11.22;100.00;96878.22;5073311;28;20631;-54
2023/10/15 04:43:47;;;;;;;3.97;1.70;;;;;;;11.20;100.00;96880.16;5062471;28;20508;-55
2023/10/15 04:46:17;;;;;;;2.80;1.30;;;;;;;11.15;100.00;96879.75;5064704;28;20674;-54
2023/10/15 04:48:45;;;;;;;3.20;1.50;;;;;;;11.15;100.00;96882.41;5064703;28;20199;-53
2023/10/15 04:51:13;;;;;;;4.10;1.33;;;;;;;11.14;100.00;96886.03;5063045;28;20218;-55
2023/10/15 04:53:42;;;;;;;3.93;1.30;;;;;;;11.11;100.00;96881.84;5063151;28;20205;-53
2023/10/15 04:56:09;;;;;;;3.53;1.50;;;;;;;11.13;100.00;96873.75;5061941;28;20207;-58
2023/10/15 04:58:35;;;;;;;3.37;1.17;;;;;;;11.11;100.00;96876.56;5061745;28;20259;-54
2023/10/15 05:01:04;;;;;;;3.63;2.00;;;;;;;11.12;100.00;96885.34;5061650;28;20199;-54
2023/10/15 05:03:31;;;;;;;6.60;1.60;;;;;;;11.07;100.00;96892.84;5061581;28;20218;-54
2023/10/15 05:06:00;;;;;;;2.20;1.30;;;;;;;10.99;100.00;96894.38;5060942;28;20202;-54
2023/10/15 05:08:28;;;;;;;3.90;1.30;;;;;;;10.96;100.00;96884.09;5061726;28;20213;-55
2023/10/15 05:10:55;;;;;;;4.30;1.33;;;;;;;10.96;100.00;96891.19;5060533;28;20245;-55
2023/10/15 05:13:24;;;;;;;1.97;1.27;;;;;;;10.91;100.00;96875.72;5061550;28;20202;-54
2023/10/15 05:15:51;;;;;;;4.53;1.83;;;;;;;10.88;100.00;96876.00;5061321;28;20199;-55
2023/10/15 05:18:19;;;;;;;3.97;1.47;;;;;;;10.85;100.00;96876.28;5061407;28;20198;-55
2023/10/15 05:20:48;;;;;;;3.47;1.17;;;;;;;10.81;100.00;96884.63;5061706;28;20227;-54
2023/10/15 05:23:15;;;;;;;1.63;1.20;;;;;;;10.75;100.00;96880.75;5063535;28;20682;-54
2023/10/15 05:25:43;;;;;;;1.07;0.97;;;;;;;10.73;100.00;96877.41;5064117;28;20225;-54
2023/10/15 05:28:13;;;;;;;3.70;1.20;;;;;;;10.76;100.00;96886.88;5064218;28;20551;-55
2023/10/15 05:30:39;;;;;;;3.63;1.37;;;;;;;10.75;100.00;96886.03;5064223;28;20234;-54
2023/10/15 05:33:07;;;;;;;1.67;1.20;;;;;;;10.74;100.00;96883.50;5064010;28;20209;-55
2023/10/15 05:35:34;;;;;;;1.07;0.83;;;;;;;10.70;100.00;96888.25;5062857;28;20268;-55
2023/10/15 05:38:01;;;;;;;3.90;1.50;;;;;;;10.68;100.00;96895.50;5063320;28;20207;-54
2023/10/15 05:40:29;;;;;;;2.07;1.47;;;;;;;10.67;100.00;96899.09;5060951;28;20202;-53
2023/10/15 05:42:57;;;;;;;3.57;1.73;;;;;;;10.68;100.00;96886.72;5062469;28;20644;-55
2023/10/15 05:45:23;;;;;;;2.17;1.77;;;;;;;10.69;100.00;96897.16;5062620;28;21366;-54
2023/10/15 05:47:50;;;;;;;4.20;1.90;;;;;;;10.68;100.00;96892.84;5061336;28;20560;-59
2023/10/15 05:50:17;;;;;;;1.63;1.53;;;;;;;10.70;100.00;96898.81;5059794;28;20280;-54
2023/10/15 05:52:45;;;;;;;5.23;1.70;;;;;;;10.68;100.00;96900.78;5060841;28;20301;-55
2023/10/15 05:55:12;;;;;;;2.13;1.83;;;;;;;10.67;100.00;96879.75;5060071;28;20648;-55
2023/10/15 05:57:38;;;;;;;2.73;2.10;;;;;;;10.63;100.00;96892.41;5060897;28;20260;-53
2023/10/15 06:00:18;;;;;;;3.10;2.10;;;;;;;10.65;100.00;96895.75;5060726;28;20202;-54
2023/10/15 06:02:45;;;;;;;2.77;2.03;;;;;;;10.69;100.00;96898.97;5060763;28;20194;-54
2023/10/15 06:05:13;;;;;;;2.67;2.23;;;;;;;10.70;100.00;96898.81;5060371;28;20214;-54
2023/10/15 06:07:40;;;;;;;2.90;2.10;;;;;;;10.74;100.00;96905.50;5060746;28;20198;-54
2023/10/15 06:10:07;;;;;;;3.43;2.30;;;;;;;10.75;100.00;96903.72;5060423;28;20263;-53
2023/10/15 06:12:34;;;;;;;2.17;2.07;;;;;;;10.80;100.00;96904.97;5060336;28;20543;-54
2023/10/15 06:15:01;;;;;;;2.30;2.10;;;;;;;10.81;100.00;96909.28;5064405;28;20236;-53
2023/10/15 06:17:29;;;;;;;3.03;2.20;;;;;;;10.82;100.00;96910.97;5074055;28;20213;-54
2023/10/15 06:19:56;;;;;;;3.23;2.00;;;;;;;10.85;100.00;96917.78;5071100;28;20781;-54
2023/10/15 06:22:22;;;;;;;3.37;2.13;;;;;;;10.83;100.00;96909.16;5071913;28;20289;-54
2023/10/15 06:24:49;;;;;;;4.17;2.40;;;;;;;10.86;100.00;96924.75;5071323;28;20214;-54
2023/10/15 06:27:18;;;;;;;3.60;1.90;;;;;;;10.84;100.00;96921.41;5064115;28;20297;-55
2023/10/15 06:29:44;;;;;;;2.60;2.10;;;;;;;10.87;100.00;96924.63;5064693;28;20211;-53
2023/10/15 06:32:11;;;;;;;3.77;2.30;;;;;;;10.89;100.00;96932.41;5063967;28;20658;-54
2023/10/15 06:34:39;;;;;;;5.53;2.47;;;;;;;10.90;100.00;96937.56;5064105;28;20269;-54
2023/10/15 06:37:08;;;;;;;3.47;2.40;;;;;;;10.94;100.00;96938.97;5064498;28;20700;-54
2023/10/15 06:39:34;;;;;;;3.30;2.20;;;;;;;10.90;100.00;96942.88;5064629;28;20207;-54
2023/10/15 06:42:01;;;;;;;3.53;2.57;;;;;;;10.96;100.00;96947.59;5064399;28;20198;-54
2023/10/15 06:44:27;;;;;;;3.13;2.17;;;;;;;10.97;100.00;96945.78;5064115;28;20202;-53
2023/10/15 06:46:54;;;;;;;2.20;2.00;;;;;;;10.99;100.00;96949.97;5064128;28;20214;-53
2023/10/15 06:49:20;;;;;;;3.63;1.63;;;;;;;11.03;100.00;96944.38;5064014;28;20284;-55
2023/10/15 06:51:48;;;;;;;2.90;2.17;;;;;;;11.06;100.00;96952.03;5064381;28;20261;-55
2023/10/15 06:54:16;;;;;;;3.17;1.80;;;;;;;11.05;100.00;96950.41;5067585;28;20206;-53
2023/10/15 06:56:42;;;;;;;2.23;1.80;;;;;;;11.12;100.00;96956.81;5070820;28;20195;-53
2023/10/15 06:59:10;;;;;;;2.53;2.00;;;;;;;11.11;100.00;96965.72;5067077;28;20214;-53
2023/10/15 07:01:38;;;;;;;3.40;2.30;;;;;;;11.11;100.00;96961.25;5062523;28;20697;-55
2023/10/15 07:04:07;;;;;;;3.90;2.17;;;;;;;11.12;100.00;96962.09;5063817;28;20202;-53
2023/10/15 07:06:34;;;;;;;3.07;2.07;;;;;;;11.16;100.00;96971.44;5063956;28;20206;-55
2023/10/15 07:09:02;;;;;;;2.57;1.70;;;;;;;11.15;100.00;96969.75;5063977;28;20213;-54
2023/10/15 07:11:29;;;;;;;3.40;1.80;;;;;;;11.17;100.00;96968.63;5063466;28;20229;-55
2023/10/15 07:13:56;;;;;;;2.73;1.67;;;;;;;11.15;100.00;96972.41;5063141;28;20217;-54
2023/10/15 07:16:24;;;;;;;3.33;2.23;;;;;;;11.19;100.00;96973.81;5063022;28;20211;-53
2023/10/15 07:18:50;;;;;;;4.33;1.50;;;;;;;11.16;100.00;96979.38;5063341;28;20234;-52
2023/10/15 07:21:19;;;;;;;3.13;1.77;;;;;;;11.17;100.00;96984.53;5063167;28;20194;-56
2023/10/15 07:23:45;;;;;;;2.17;1.60;;;;;;;11.19;100.00;96987.03;5063426;28;20199;-54
2023/10/15 07:26:13;;;;;;;3.63;1.70;;;;;;;11.16;100.00;96982.84;5063484;28;20210;-54
2023/10/15 07:28:40;;;;;;;2.07;1.87;;;;;;;11.21;100.00;96987.72;5063214;28;20206;-53
2023/10/15 07:31:06;;;;;;;2.07;1.77;;;;;;;11.19;100.00;96998.47;5062864;28;20245;-54
2023/10/15 07:33:33;;;;;;;2.03;1.43;;;;;;;11.20;100.00;96988.69;5062724;28;20259;-55
2023/10/15 07:36:02;;;;;;;2.80;1.97;;;;;;;11.23;100.00;96993.75;5062330;28;20654;-52
2023/10/15 07:38:28;;;;;;;2.03;1.63;;;;;;;11.18;100.00;96995.94;5063248;28;20233;-54
2023/10/15 07:40:55;;;;;;;3.83;2.00;;;;;;;11.24;100.00;97004.16;5062815;28;20195;-53
2023/10/15 07:43:23;;;;;;;4.53;1.87;;;;;;;11.21;100.00;96998.31;5063773;28;20230;-54
2023/10/15 07:45:50;;;;;;;2.93;1.90;;;;;;;11.26;100.00;97001.41;5063346;28;20218;-54
2023/10/15 07:48:18;;;;;;;2.93;1.80;;;;;;;11.34;100.00;97006.81;5062968;28;20206;-54
2023/10/15 07:50:45;;;;;;;1.97;1.60;;;;;;;11.44;100.00;97011.13;5063032;28;20306;-54
2023/10/15 07:53:12;;;;;;;3.87;1.80;;;;;;;11.49;100.00;97013.38;5062670;28;20700;-53
2023/10/15 07:55:39;;;;;;;2.23;2.00;;;;;;;11.57;100.00;97016.16;5063426;28;20218;-53
2023/10/15 07:58:09;;;;;;;3.43;1.80;;;;;;;11.64;100.00;97017.28;5063510;28;21282;-53
2023/10/15 08:00:37;;;;;;;2.73;1.70;;;;;;;11.66;100.00;97017.97;5063527;28;20214;-54
2023/10/15 08:03:07;;;;;;;3.47;1.90;;;;;;;11.71;100.00;97017.59;5062975;28;20210;-53
2023/10/15 08:05:36;;;;;;;1.70;1.60;;;;;;;11.69;100.00;97030.13;5062951;28;20216;-53
2023/10/15 08:08:03;;;;;;;3.53;1.90;;;;;;;11.77;100.00;97025.81;5063241;28;20223;-53
2023/10/15 08:10:33;;;;;;;3.63;1.77;;;;;;;11.77;100.00;97031.09;5062491;28;20796;-52
2023/10/15 08:13:00;;;;;;;2.60;1.80;;;;;;;11.81;100.00;97029.84;5063043;28;20252;-53
2023/10/15 08:15:28;;;;;;;2.80;2.03;;;;;;;11.90;100.00;97034.28;5063199;28;20207;-54
2023/10/15 08:17:57;;;;;;;1.97;1.50;;;;;;;11.92;100.00;97044.75;5063737;28;20233;-55
2023/10/15 08:20:24;;;;;;;2.47;1.63;;;;;;;11.91;100.00;97043.91;5062810;28;20210;-53
2023/10/15 08:22:51;;;;;;;4.60;2.20;;;;;;;11.94;100.00;97038.31;5063439;28;20207;-53
2023/10/15 08:25:21;;;;;;;2.90;1.70;;;;;;;12.00;100.00;97038.75;5062870;28;20195;-54
2023/10/15 08:27:48;;;;;;;3.07;1.70;;;;;;;12.02;100.00;97037.63;5063055;28;20507;-53
2023/10/15 08:30:17;;;;;;;5.10;1.67;;;;;;;12.09;100.00;97037.88;5063623;28;20261;-52
2023/10/15 08:32:45;;;;;;;2.30;1.57;;;;;;;12.10;100.00;97039.56;5062663;28;20226;-53
2023/10/15 08:35:17;;;;;;;3.57;1.90;;;;;;;12.08;100.00;97026.44;5063791;28;20211;-53
2023/10/15 08:37:45;;;;;;;2.87;2.10;;;;;;;12.06;100.00;97031.06;5063861;28;20219;-53
2023/10/15 08:40:16;;;;;;;6.03;2.40;;;;;;;12.13;100.00;97024.22;5062551;28;20541;-52
2023/10/15 08:42:46;;;;;;;2.77;2.03;;;;;;;12.12;100.00;97032.28;5062476;28;20194;-53
2023/10/15 08:45:13;;;;;;;4.03;1.97;;;;;;;12.20;100.00;97027.97;5062418;28;20188;-53
2023/10/15 08:47:40;;;;;;;7.60;2.20;;;;;;;12.43;100.00;97026.63;5062961;28;20221;-54
2023/10/15 08:50:10;;;;;;;4.63;2.20;;;;;;;12.54;100.00;97025.59;5063508;28;20218;-53
2023/10/15 08:52:38;;;;;;;5.07;1.70;;;;;;;12.64;100.00;97022.94;5064116;28;20573;-54
2023/10/15 08:55:06;;;;;;;3.77;1.83;;;;;;;12.68;100.00;97021.66;5063612;28;20527;-54
2023/10/15 08:57:34;;;;;;;3.73;1.97;;;;;;;13.09;100.00;97031.78;5062401;28;20598;-54
2023/10/15 09:00:02;;;;;;;3.53;2.03;;;;;;;13.45;100.00;97025.53;5063710;28;20302;-53
2023/10/15 09:02:29;;;;;;;3.83;1.60;;;;;;;13.62;100.00;97025.69;5061670;28;20209;-52
2023/10/15 09:04:56;;;;;;;3.90;1.73;;;;;;;13.77;100.00;97025.00;5061108;28;20218;-53
2023/10/15 09:07:23;;;;;;;3.77;1.73;;;;;;;13.77;98.68;97029.47;5061396;28;20206;-54
2023/10/15 09:09:53;;;;;;;5.23;2.10;;;;;;;13.83;97.87;97034.19;5064156;28;20613;-53
2023/10/15 09:12:21;;;;;;;3.90;1.60;;;;;;;13.50;97.12;97029.56;5073623;28;20281;-57
2023/10/15 09:14:49;;;;;;;5.13;1.80;;;;;;;13.21;100.00;97027.97;5075401;28;20216;-54
2023/10/15 09:17:18;;;;;;;3.23;1.70;;;;;;;13.23;100.00;97033.09;5066593;28;20210;-54
2023/10/15 09:19:47;;;;;;;3.50;1.73;;;;;;;13.15;100.00;97038.31;5061854;28;20215;-54
2023/10/15 09:22:15;;;;;;;3.87;1.70;;;;;;;12.98;100.00;97038.13;5061925;28;20253;-54
2023/10/15 09:24:42;;;;;;;4.17;1.90;;;;;;;12.76;100.00;97033.19;5061477;28;20280;-55
2023/10/15 09:27:09;;;;;;;1.77;1.60;;;;;;;12.65;100.00;97038.69;5061189;28;20207;-53
2023/10/15 09:29:36;;;;;;;3.67;1.97;;;;;;;12.71;100.00;97034.63;5060670;28;20206;-55
2023/10/15 09:32:04;;;;;;;5.20;1.73;;;;;;;12.70;100.00;97040.91;5060804;28;20678;-54
2023/10/15 09:34:31;;;;;;;3.10;1.70;;;;;;;12.69;100.00;97041.88;5060797;28;20538;-52
2023/10/15 09:36:59;;;;;;;5.20;2.03;;;;;;;12.70;100.00;97031.13;5061383;28;20194;-53
2023/10/15 09:39:28;;;;;;;3.93;1.30;;;;;;;12.67;100.00;97034.09;5061428;28;20206;-53
2023/10/15 09:41:55;;;;;;;3.43;1.83;;;;;;;12.86;100.00;97039.28;5061377;28;20203;-52
2023/10/15 09:44:24;;;;;;;4.00;1.87;;;;;;;12.75;100.00;97036.00;5062823;28;20233;-53
2023/10/15 09:46:51;;;;;;;2.63;1.50;;;;;;;12.82;100.00;97037.91;5061700;28;20203;-52
2023/10/15 09:49:19;;;;;;;2.53;1.50;;;;;;;12.76;100.00;97038.50;5061952;28;20565;-53
2023/10/15 09:51:48;;;;;;;4.50;2.00;;;;;;;12.75;100.00;97041.31;5061736;28;20234;-52
2023/10/15 09:54:19;;;;;;;1.73;1.30;;;;;;;12.77;100.00;97042.84;5061556;28;20214;-54
2023/10/15 09:56:46;;;;;;;4.57;2.00;;;;;;;12.86;100.00;97033.13;5062455;28;20207;-54
2023/10/15 09:59:14;;;;;;;3.60;1.93;;;;;;;12.96;100.00;97034.78;5065070;28;20539;-52
2023/10/15 10:01:45;;;;;;;2.80;1.43;;;;;;;12.89;100.00;97033.69;5064539;28;20218;-54
2023/10/15 10:04:26;;;;;;;5.13;1.70;;;;;;;13.00;100.00;97031.84;5065175;28;20191;-54
2023/10/15 10:07:21;;;;;;;3.00;1.50;;;;;;;13.10;100.00;97024.66;5066106;28;20213;-54
2023/10/15 10:10:26;;;;;;;5.10;1.90;;;;;;;13.19;100.00;97029.06;5068853;28;20195;-54
2023/10/15 10:13:15;;;;;;;4.60;2.03;;;;;;;13.21;100.00;97027.97;5045667;28;20233;-54
2023/10/15 10:15:49;;;;;;;3.40;1.60;;;;;;;13.18;100.00;97022.91;5068168;28;20206;-54
2023/10/15 10:18:17;;;;;;;2.87;1.73;;;;;;;13.22;100.00;97020.81;5066912;28;20206;-52
2023/10/15 10:20:48;;;;;;;3.77;1.60;;;;;;;13.23;100.00;97020.66;5069394;28;20223;-54
2023/10/15 10:23:15;;;;;;;3.83;1.90;;;;;;;13.27;100.00;97029.16;5067777;28;20199;-53
2023/10/15 10:25:45;;;;;;;2.60;1.57;;;;;;;13.28;100.00;97020.22;5065919;28;20222;-53
2023/10/15 10:28:13;;;;;;;3.20;1.73;;;;;;;13.25;100.00;97024.00;5066518;28;20790;-54
2023/10/15 10:30:40;;;;;;;3.93;1.73;;;;;;;13.30;98.56;97023.56;5067472;28;20217;-53
2023/10/15 10:33:09;;;;;;;5.13;1.90;;;;;;;13.26;96.67;97024.81;5065136;28;20223;-52
2023/10/15 10:35:45;;;;;;;2.17;1.50;;;;;;;13.26;100.00;97030.16;5063979;28;20297;-53
2023/10/15 10:38:18;;;;;;;3.60;1.67;;;;;;;13.27;100.00;97022.03;5064383;28;20772;-55
2023/10/15 10:40:47;;;;;;;2.67;1.40;;;;;;;13.30;97.39;97029.69;5064378;28;20289;-54
2023/10/15 10:43:16;;;;;;;4.17;2.50;;;;;;;13.78;93.27;97025.84;5064433;28;20211;-56
2023/10/15 10:45:53;;;;;;;4.10;1.97;;;;;;;14.55;91.87;97015.25;5064489;28;20206;-53
2023/10/15 10:48:25;;;;;;;5.13;1.60;;;;;;;15.67;81.51;97007.78;5064015;28;20550;-54
2023/10/15 10:51:20;;;;;;;2.28;1.45;;;;;;;16.36;80.18;97004.59;5063581;28;20206;-55
2023/10/15 10:54:26;;;;;;;3.95;1.48;;;;;;;15.91;78.66;97002.44;5061781;28;20257;-53
2023/10/15 10:57:06;;;;;;;2.20;1.55;;;;;;;15.91;78.04;96995.28;5011711;28;20247;-54
2023/10/15 10:59:34;;;;;;;4.10;1.60;;;;;;;15.27;87.24;96993.38;5059412;28;20297;-55
2023/10/15 11:02:01;;;;;;;2.95;1.83;;;;;;;15.02;85.83;96996.16;5063582;28;20261;-55
2023/10/15 11:04:28;;;;;;;3.13;1.60;;;;;;;14.87;80.27;96999.44;5063467;28;20194;-53
2023/10/15 11:06:55;;;;;;;4.25;1.38;;;;;;;14.58;81.09;96993.66;5062859;28;20663;-55
2023/10/15 11:09:23;;;;;;;4.97;1.60;;;;;;;14.15;86.99;96991.88;5062275;28;20203;-55
2023/10/15 11:11:51;;;;;;;4.65;1.63;;;;;;;13.87;87.46;96985.88;5063149;28;20267;-53
2023/10/15 11:14:22;;;;;;;6.10;2.80;;;;;;;13.60;94.51;96988.66;5063647;28;20199;-53
2023/10/15 11:16:51;;;;;;;2.08;1.98;;;;;;;13.39;93.20;96988.13;5064001;28;20956;-52
2023/10/15 11:19:19;;;;;;;3.40;1.57;;;;;;;13.44;93.46;96996.47;5063508;28;20210;-54
2023/10/15 11:21:46;;;;;;;2.20;1.33;;;;;;;13.31;89.98;96996.84;5062782;28;20198;-55
2023/10/15 11:24:14;;;;;;;2.77;1.67;;;;;;;13.22;100.00;96987.13;5063214;28;20206;-55
2023/10/15 11:26:42;;;;;;;3.17;1.80;;;;;;;13.19;100.00;96987.41;5068662;28;20195;-54
2023/10/15 11:29:10;;;;;;;3.05;1.13;;;;;;;13.20;100.00;96983.78;5083323;28;20198;-53
2023/10/15 11:31:37;;;;;;;3.33;1.67;;;;;;;13.18;95.75;96975.13;5087232;28;20199;-53
2023/10/15 11:34:03;;;;;;;2.43;1.40;;;;;;;13.19;94.36;96976.78;5076644;28;20199;-55
2023/10/15 11:36:34;;;;;;;3.27;1.70;;;;;;;13.26;93.50;96967.25;5066696;28;20249;-54